Time;durP1;ratioP1;P1;durP2;ratioP2;P2;SDS_P1;SDS_P2;PMS_P1;PMS_P2;Temp;Humidity;BMP_temperature;BMP_pressure;BME280_temperature;BME280_humidity;BME280_pressure;Samples;Min_cycle;Max_cycle;Signal;HPM_P1;HPM_P2
2023/02/07 16:31:54;;;;;;;;;;;;;;;6.68;39.37;100178.22;4609704;27;19930;-64
2023/02/07 16:34:19;;;;;;;;;;;;;;;6.54;42.23;100177.66;4931722;29;19923;-63
2023/02/07 16:36:49;;;;;;;;;;;;;;;6.41;42.66;100183.09;4927561;29;19930;-64
2023/02/07 16:39:14;;;;;;;;;;;;;;;6.25;42.22;100183.44;4934740;29;20370;-63
2023/02/07 16:41:42;;;;;;;;;;;;;;;6.09;43.61;100188.94;4935774;29;19919;-64
2023/02/07 16:44:10;;;;;;;;;;;;;;;5.97;43.72;100180.50;4934030;29;19918;-63
2023/02/07 16:46:35;;;;;;;;;;;;;;;5.83;42.00;100184.16;4931876;29;19941;-64
2023/02/07 16:49:01;;;;;;;;;;;;;;;5.68;43.46;100187.91;4931389;29;19918;-64
2023/02/07 16:51:26;;;;;;;;;;;;;;;5.57;43.78;100199.38;4933267;29;20003;-64
2023/02/07 16:53:51;;;;;;;;;;;;;;;5.44;44.63;100194.38;4934700;29;20531;-64
2023/02/07 16:56:18;;;;;;;;;;;;;;;5.29;43.94;100193.75;4934655;29;20365;-63
2023/02/07 16:58:43;;;;;;;;;;;;;;;5.13;44.79;100191.38;4924862;29;19970;-63
2023/02/07 17:01:10;;;;;;;;;;;;;;;4.99;45.43;100191.59;4933249;29;19919;-63
2023/02/07 17:03:35;;;;;;;;;;;;;;;4.88;45.96;100203.84;4928246;29;20390;-64
2023/02/07 17:06:00;;;;;;;;;;;;;;;4.78;46.78;100199.66;4935737;29;19914;-63
2023/02/07 17:08:28;;;;;;;;;;;;;;;4.66;45.97;100199.84;4931529;29;19930;-63
2023/02/07 17:10:55;;;;;;;;;;;;;;;4.56;47.27;100203.44;4935805;29;19922;-63
2023/02/07 17:13:20;;;;;;;;;;;;;;;4.47;47.64;100202.69;4932338;29;19918;-62
2023/02/07 17:15:45;;;;;;;;;;;;;;;4.35;46.45;100200.22;4935560;29;19921;-63
2023/02/07 17:18:11;;;;;;;;;;;;;;;4.29;47.78;100208.06;4930434;29;20559;-63
2023/02/07 17:20:37;;;;;;;;;;;;;;;4.17;46.70;100198.69;4926717;29;20323;-64
2023/02/07 17:23:02;;;;;;;;;;;;;;;4.07;46.71;100196.19;4932635;29;20314;-63
2023/02/07 17:25:28;;;;;;;;;;;;;;;3.98;48.87;100207.53;4930270;29;19919;-63
2023/02/07 17:27:53;;;;;;;;;;;;;;;3.91;49.03;100201.53;4928889;29;20275;-63
2023/02/07 17:30:19;;;;;;;;;;;;;;;3.83;48.09;100192.97;4929144;29;20355;-63
2023/02/07 17:32:44;;;;;;;;;;;;;;;3.74;48.23;100196.50;4927983;29;19919;-63
2023/02/07 17:35:10;;;;;;;;;;;;;;;3.54;46.21;100191.50;4933753;29;19921;-62
2023/02/07 17:37:35;;;;;;;;;;;;;;;3.32;45.22;100189.94;4933032;29;19923;-62
2023/02/07 17:40:00;;;;;;;;;;;;;;;3.14;45.60;100195.28;4932404;29;20001;-61
2023/02/07 17:42:25;;;;;;;;;;;;;;;2.99;45.41;100193.59;4931867;29;20046;-61
2023/02/07 17:44:50;;;;;;;;;;;;;;;2.89;46.69;100194.53;4928324;29;20017;-61
2023/02/07 17:47:16;;;;;;;;;;;;;;;2.77;46.96;100195.47;4929891;29;20013;-61
2023/02/07 17:49:41;;;;;;;;;;;;;;;2.66;47.34;100198.13;4928248;29;20033;-61
2023/02/07 17:52:08;;;;;;;;;;;;;;;2.57;48.06;100196.41;4930549;29;19957;-61
2023/02/07 17:54:33;;;;;;;;;;;;;;;2.49;48.93;100195.59;4930669;29;20010;-61
2023/02/07 17:56:58;;;;;;;;;;;;;;;2.39;49.16;100201.69;4931708;29;20014;-61
2023/02/07 17:59:23;;;;;;;;;;;;;;;2.31;49.59;100206.03;4928887;29;19970;-61
2023/02/07 18:01:49;;;;;;;;;;;;;;;2.24;49.10;100209.53;4929779;29;19919;-61
2023/02/07 18:04:14;;;;;;;;;;;;;;;2.12;49.69;100203.50;4925907;29;19926;-61
2023/02/07 18:06:39;;;;;;;;;;;;;;;2.11;51.12;100206.94;4932058;29;19922;-61
2023/02/07 18:09:04;;;;;;;;;;;;;;;2.05;50.92;100204.38;4932051;29;19922;-62
2023/02/07 18:11:30;;;;;;;;;;;;;;;1.99;49.88;100206.09;4929685;29;19919;-61
2023/02/07 18:14:00;;;;;;;;;;;;;;;1.93;51.00;100208.69;4933151;29;19919;-61
2023/02/07 18:16:25;;;;;;;;;;;;;;;1.86;51.20;100207.88;4929411;29;19922;-61
2023/02/07 18:18:51;;;;;;;;;;;;;;;2.26;70.40;100212.94;4930017;29;20362;-61
2023/02/07 18:21:16;;;;;;;;;;;;;;;2.30;54.71;100209.47;4929212;29;19923;-62
2023/02/07 18:23:41;;;;;;;;;;;;;;;2.22;51.83;100206.06;4933412;29;19915;-61
2023/02/07 18:26:08;;;;;;;;;;;;;;;2.08;51.05;100209.53;4932113;29;20321;-62
2023/02/07 18:28:33;;;;;;;;;;;;;;;1.99;50.65;100209.56;4929914;29;19937;-62
2023/02/07 18:30:58;;;;;;;;;;;;;;;1.86;51.07;100213.91;4930745;29;19918;-61
2023/02/07 18:33:23;;;;;;;;;;;;;;;1.74;51.23;100205.28;4932834;29;19921;-61
2023/02/07 18:35:54;;;;;;;;;;;;;;;1.66;52.15;100206.16;4933183;29;19926;-61
2023/02/07 18:38:19;;;;;;;;;;;;;;;1.58;51.48;100217.34;4925333;29;20089;-62
2023/02/07 18:40:44;;;;;;;;;;;;;;;1.47;53.56;100214.78;4927245;29;20017;-61
2023/02/07 18:43:10;;;;;;;;;;;;;;;1.39;53.34;100212.19;4932585;29;20002;-61
2023/02/07 18:45:37;;;;;;;;;;;;;;;1.30;53.06;100219.06;4927844;29;20013;-62
2023/02/07 18:48:02;;;;;;;;;;;;;;;1.21;54.07;100221.66;4930622;29;19950;-61
2023/02/07 18:50:28;;;;;;;;;;;;;;;1.17;55.90;100229.41;4935398;29;19928;-62
2023/02/07 18:52:53;;;;;;;;;;;;;;;1.09;54.96;100213.00;4935300;29;19988;-61
2023/02/07 18:55:18;;;;;;;;;;;;;;;1.06;55.28;100202.66;4934055;29;20834;-61
2023/02/07 18:57:43;;;;;;;;;;;;;;;1.02;55.18;100206.09;4935003;29;20370;-62
2023/02/07 19:00:09;;;;;;;;;;;;;;;0.99;54.69;100211.25;4933582;29;19969;-61
2023/02/07 19:02:34;;;;;;;;;;;;;;;0.89;54.51;100214.69;4932000;29;19918;-61
2023/02/07 19:05:00;;;;;;;;;;;;;;;0.83;53.52;100209.53;4933112;29;19970;-60
2023/02/07 19:07:25;;;;;;;;;;;;;;;0.82;55.39;100212.94;4932339;29;19927;-61
2023/02/07 19:09:50;;;;;;;;;;;;;;;0.81;55.03;100206.91;4935188;29;20362;-61
2023/02/07 19:12:16;;;;;;;;;;;;;;;0.69;56.86;100220.69;4933848;29;20383;-61
2023/02/07 19:14:41;;;;;;;;;;;;;;;0.66;56.82;100217.22;4936093;29;20289;-61
2023/02/07 19:17:06;;;;;;;;;;;;;;;0.47;55.37;100213.69;4927015;29;20002;-61
2023/02/07 19:19:31;;;;;;;;;;;;;;;0.40;56.61;100217.97;4934106;29;19926;-61
2023/02/07 19:21:57;;;;;;;;;;;;;;;0.45;57.10;100218.00;4925886;29;19970;-61
2023/02/07 19:24:22;;;;;;;;;;;;;;;0.49;58.54;100224.91;4931992;29;19973;-62
2023/02/07 19:26:48;;;;;;;;;;;;;;;0.46;57.08;100225.72;4934935;29;20330;-61
2023/02/07 19:29:14;;;;;;;;;;;;;;;0.45;58.63;100220.59;4933136;29;19934;-61
2023/02/07 19:31:42;;;;;;;;;;;;;;;0.41;58.21;100223.97;4934627;29;19923;-62
2023/02/07 19:34:07;;;;;;;;;;;;;;;0.39;58.56;100230.88;4931993;29;19926;-60
2023/02/07 19:36:32;;;;;;;;;;;;;;;0.32;59.48;100229.13;4931810;29;20013;-61
2023/02/07 19:38:58;;;;;;;;;;;;;;;0.26;58.54;100232.50;4933701;29;19918;-61
2023/02/07 19:41:23;;;;;;;;;;;;;;;0.23;59.48;100228.19;4931516;29;19919;-61
2023/02/07 19:43:49;;;;;;;;;;;;;;;0.20;59.53;100238.50;4935928;29;19970;-61
2023/02/07 19:46:14;;;;;;;;;;;;;;;0.16;59.97;100231.59;4933024;29;19974;-61
2023/02/07 19:48:39;;;;;;;;;;;;;;;0.14;59.29;100232.47;4933351;29;19926;-61
2023/02/07 19:51:10;;;;;;;;;;;;;;;0.08;58.99;100230.69;4930148;29;20137;-61
2023/02/07 19:53:36;;;;;;;;;;;;;;;0.09;59.54;100227.25;4928128;29;20394;-61
2023/02/07 19:56:02;;;;;;;;;;;;;;;0.10;61.68;100226.38;4917767;29;19915;-60
2023/02/07 19:58:27;;;;;;;;;;;;;;;0.09;61.88;100224.69;4932020;29;19925;-61
2023/02/07 20:00:53;;;;;;;;;;;;;;;0.03;61.15;100227.22;4931541;29;19925;-60
2023/02/07 20:03:18;;;;;;;;;;;;;;;0.03;59.94;100223.78;4933100;29;20311;-61
2023/02/07 20:05:43;;;;;;;;;;;;;;;-0.02;61.39;100227.19;4930279;29;19926;-62
2023/02/07 20:08:09;;;;;;;;;;;;;;;-0.08;63.04;100224.56;4931848;29;20372;-61
2023/02/07 20:10:38;;;;;;;;;;;;;;;-0.16;61.90;100227.97;4933203;29;19927;-61
2023/02/07 20:13:04;;;;;;;;;;;;;;;-0.19;62.08;100228.78;4932700;29;20331;-62
2023/02/07 20:15:29;;;;;;;;;;;;;;;-0.29;62.17;100233.03;4910401;29;19981;-61
2023/02/07 20:17:55;;;;;;;;;;;;;;;-0.32;62.52;100227.84;4933393;29;20385;-61
2023/02/07 20:20:20;;;;;;;;;;;;;;;-0.37;62.66;100233.81;4926964;29;20374;-62
2023/02/07 20:22:46;;;;;;;;;;;;;;;-0.36;62.78;100231.25;4931196;29;20026;-61
2023/02/07 20:25:11;;;;;;;;;;;;;;;-0.41;63.77;100232.94;4934952;29;19919;-61
2023/02/07 20:27:36;;;;;;;;;;;;;;;-0.39;63.15;100241.53;4928111;29;19922;-61
2023/02/07 20:30:01;;;;;;;;;;;;;;;-0.43;62.15;100234.63;4934484;29;19919;-62
2023/02/07 20:32:26;;;;;;;;;;;;;;;-0.42;62.77;100236.34;4933855;29;19966;-61
2023/02/07 20:34:52;;;;;;;;;;;;;;;-0.43;62.67;100239.78;4935910;29;19918;-61
2023/02/07 20:37:17;;;;;;;;;;;;;;;6.12;84.12;100225.34;4933877;29;20022;-62
2023/02/07 20:39:42;;;;;;;;;;;;;;;8.11;47.13;100206.13;4915509;29;19967;-61
2023/02/07 20:42:08;;;;;;;;;;;;;;;5.26;46.76;100219.81;4928874;29;19966;-61
2023/02/07 20:44:33;;;;;;;;;;;;;;;3.79;48.95;100217.25;4934199;29;19920;-61
2023/02/07 20:46:59;;;;;;;;;;;;;;;2.88;50.43;100219.59;4932567;29;20306;-61
2023/02/07 20:49:25;;;;;;;;;;;;;;;2.10;52.98;100218.19;4915830;29;19922;-62
2023/02/07 20:51:51;;;;;;;;;;;;;;;2.13;62.51;100220.75;4933642;29;19962;-62
2023/02/07 20:54:16;;;;;;;;;;;;;;;2.47;72.80;100228.41;4933314;29;20037;-62
2023/02/07 20:56:41;;;;;;;;;;;;;;;2.69;76.98;100226.63;4933864;29;19925;-62
2023/02/07 20:59:07;;;;;;;;;;;;;;;2.79;73.69;100224.84;4932647;29;20298;-63
2023/02/07 21:01:33;;;;;;;;;;;;;;;2.94;73.88;100229.09;4934263;29;19922;-63
2023/02/07 21:03:59;;;;;;;;;;;;;;;3.04;73.56;100225.56;4909820;29;19938;-62
2023/02/07 21:06:24;;;;;;;;;;;;;;;3.13;72.80;100225.50;4932996;29;19919;-62
2023/02/07 21:08:52;;;;;;;;;;;;;;;3.20;70.59;100218.53;4933591;29;19919;-62
2023/02/07 21:11:17;;;;;;;;;;;;;;;3.23;71.01;100221.97;4928580;29;19926;-62
2023/02/07 21:13:42;;;;;;;;;;;;;;;3.31;71.10;100220.22;4934139;29;19918;-63
2023/02/07 21:16:07;;;;;;;;;;;;;;;3.40;70.85;100221.84;4925514;29;20339;-63
2023/02/07 21:18:33;;;;;;;;;;;;;;;3.43;70.99;100224.44;4932479;29;20327;-62
2023/02/07 21:20:58;;;;;;;;;;;;;;;3.42;70.10;100222.72;4932827;29;19926;-62
2023/02/07 21:23:23;;;;;;;;;;;;;;;3.44;70.39;100226.19;4917875;29;19925;-62
2023/02/07 21:25:49;;;;;;;;;;;;;;;3.49;70.59;100223.53;4933060;29;19923;-62
2023/02/07 21:28:14;;;;;;;;;;;;;;;3.49;69.91;100219.22;4931897;29;19919;-62
2023/02/07 21:30:39;;;;;;;;;;;;;;;3.49;69.25;100224.41;4932010;29;19918;-62
2023/02/07 21:33:05;;;;;;;;;;;;;;;3.49;69.91;100218.34;4934712;29;19915;-62
2023/02/07 21:35:30;;;;;;;;;;;;;;;3.50;69.11;100210.53;4932153;29;19918;-63
